Airfield :
LOGIN :

Register | Disclaimer

   EN    FR    IT 

 










Legend :    VFR   Marginal VFR   IFR   Intensive IFR   Very Intensive IFR
Visi :
Ceiling :
>= 8 km
>= 3000ft
5 to 8 km
1000 to 3000 ft
1500m to 5 km
500 to 1000 ft
800 to 1500m
200 to 500 ft
< 800m
< 200 ft
Symbols :   Thunderstorms  Fog  Heavy snow  Heavy precipitations  Wind > 20 kt
SIGMETs :     Misc.  Thunderstorms  Icing  Turbulence  Mountain Waves  Volcanic Ashes






- Airport Elevation : 84 ft


LFBC - Cazaux

CURRENT METAR :
  • 230300Z AUTO 12002KT CAVOK 16/15 Q1010

EXPIRED METARs :
  • 230230Z AUTO 00000KT CAVOK 15/15 Q1011
  • 230200Z AUTO 00000KT CAVOK 15/15 Q1011
  • 230130Z AUTO 09003KT CAVOK 15/15 Q1011
  • 230100Z AUTO 10001KT CAVOK 16/15 Q1011
  • 230030Z AUTO VRB02KT 9000 NSC 15/15 Q1012

TAF TAF LFBC
Valid from the 22 at 21:00 until the 23 at 21:00 UTC


222000Z 2221/2321 VRB03KT 7000 NSC
TEMPO 2221/2307 3000 BR
PROB40
TEMPO 2221/2307 0800 FG
BECMG 2310/2312 24010KT
PROB30
TEMPO 2312/2315 4000 SHRA BKN050TCU
PROB40
TEMPO 2315/2320 4000 SHRA BKN015 BKN040TCU



MET'MAP, your aeronautical weather chart ! - Copyright ORBIFLY December 2007 - Disclaimer

ORBIFLY MET'MAP TEAM :

Programming & Development : Alexandra Zaïnal
Concept & original design : Baudouin d'Aumeries
Assistance for programming : Marc-Olivier Méhu
Technical & hardware support : Manuel Goepfert

Contact : metmap@orbifly.com




SOURCES & CREDITS :

   NOAA